Skip Navigation LinksHome page > Weather > Current weather Skip Navigation Links

Current Weather

Waukegan Regional, Waukegan, Ill.

For information only: do not use for flight planning or navigation.
Latest weather
Observation time Monday, November 29, 2021 1:55 PM CST
Local time Monday, November 29, 2021 2:36 PM CST
Flight conditions Visual Meteorological Conditions
Winds
Wind direction South-Southeast (150°)
Wind speed 9 mph
Visibility 9 mi.
Sky condition
Ceiling 3,600 ft. broken clouds
Cloud layer broken clouds 3,600 ft.
Cloud layer overcast 5,500 ft.
Temperature 38°F
Dewpoint 21°F
Altimeter 29.87 in.Hg
Precipitation
Snow began 1:25 PM
Snow ended 1:54 PM
Precipitation last hour trace
Derived measurements
Relative humidity 50%
Wind chill 31°F
Density altitude -569 ft.
Sea-level pressure 29.91 in.Hg
Remarks
Automated weather observing station with precipitation discriminator.
Pressure falling rapidly.
METAR KUGN 291955Z 15008KT 9SM BKN036 OVC055 03/M06 A2987 RMK AO2 SNB25E54 PRESFR SLP127 P0000 T00331061

Settings

Location code

InnerDrive.Weather 4.0.6770.0 Release CLR 4.0.30319.42000
Copyright ©2018 Inner Drive Technology. All rights reserved. Portions Copyright ©1986-2018 David Braverman.

Find weather

Site navigation


Skip Navigation Links

Place info

Page info

PayPal - The safer, easier way to pay online!

Return home.

Copyright ©2021 Inner Drive Technology. Purveyors of fine, hand-crafted computer software. Page printed 2021-11-29T20:36:51 UTC.